地図

経路データ

SID SEASON NUMBER BASIN SUBBASIN NAME ISO_TIME NATURE LAT LON WMO_WIND WMO_PRES WMO_AGENCY TRACK_TYPE DIST2LAND LANDFALL IFLAG USA_AGENCY USA_ATCF_ID USA_LAT USA_LON USA_RECORD USA_STATUS USA_WIND USA_PRES USA_SSHS USA_R34_NE USA_R34_SE USA_R34_SW USA_R34_NW USA_R50_NE USA_R50_SE USA_R50_SW USA_R50_NW USA_R64_NE USA_R64_SE USA_R64_SW USA_R64_NW USA_POCI USA_ROCI USA_RMW USA_EYE TOKYO_LAT TOKYO_LON TOKYO_GRADE TOKYO_WIND TOKYO_PRES TOKYO_R50_DIR TOKYO_R50_LONG TOKYO_R50_SHORT TOKYO_R30_DIR TOKYO_R30_LONG TOKYO_R30_SHORT TOKYO_LAND CMA_LAT CMA_LON CMA_CAT CMA_WIND CMA_PRES HKO_LAT HKO_LON HKO_CAT HKO_WIND HKO_PRES NEWDELHI_LAT NEWDELHI_LON NEWDELHI_GRADE NEWDELHI_WIND NEWDELHI_PRES NEWDELHI_CI NEWDELHI_DP NEWDELHI_POCI REUNION_LAT REUNION_LON REUNION_TYPE REUNION_WIND REUNION_PRES REUNION_TNUM REUNION_CI REUNION_RMW REUNION_R34_NE REUNION_R34_SE REUNION_R34_SW REUNION_R34_NW REUNION_R50_NE REUNION_R50_SE REUNION_R50_SW REUNION_R50_NW REUNION_R64_NE REUNION_R64_SE REUNION_R64_SW REUNION_R64_NW BOM_LAT BOM_LON BOM_TYPE BOM_WIND BOM_PRES BOM_TNUM BOM_CI BOM_RMW BOM_R34_NE BOM_R34_SE BOM_R34_SW BOM_R34_NW BOM_R50_NE BOM_R50_SE BOM_R50_SW BOM_R50_NW BOM_R64_NE BOM_R64_SE BOM_R64_SW BOM_R64_NW BOM_ROCI BOM_POCI BOM_EYE BOM_POS_METHOD BOM_PRES_METHOD NADI_LAT NADI_LON NADI_CAT NADI_WIND NADI_PRES WELLINGTON_LAT WELLINGTON_LON WELLINGTON_WIND WELLINGTON_PRES DS824_LAT DS824_LON DS824_STAGE DS824_WIND DS824_PRES TD9636_LAT TD9636_LON TD9636_STAGE TD9636_WIND TD9636_PRES TD9635_LAT TD9635_LON TD9635_WIND TD9635_PRES TD9635_ROCI NEUMANN_LAT NEUMANN_LON NEUMANN_CLASS NEUMANN_WIND NEUMANN_PRES MLC_LAT MLC_LON MLC_CLASS MLC_WIND MLC_PRES USA_GUST BOM_GUST BOM_GUST_PER REUNION_GUST REUNION_GUST_PER USA_SEAHGT USA_SEARAD_NE USA_SEARAD_SE USA_SEARAD_SW USA_SEARAD_NW STORM_SPEED STORM_DIR
1934221N14124 1934 39 WP MM NOT_NAMED 1934-08-08 21:00:00 NR 14.0000 124.000 main 10 10 __________O___ -1 14.0000 124.000 2 10 1
1934221N14124 1934 39 WP MM NOT_NAMED 1934-08-09 00:00:00 NR 14.4813 124.008 main 57 57 __________P___ -1 14.4813 124.008 2 10 2
1934221N14124 1934 39 WP MM NOT_NAMED 1934-08-09 03:00:00 NR 14.9500 124.013 main 112 112 __________P___ -1 14.9500 124.013 2 9 1
1934221N14124 1934 39 WP MM NOT_NAMED 1934-08-09 06:00:00 NR 15.3938 124.011 main 157 157 __________P___ -1 15.3938 124.011 2 9 358
1934221N14124 1934 39 WP MM NOT_NAMED 1934-08-09 09:00:00 NR 15.8000 124.000 main 197 183 __________O___ -1 15.8000 124.000 2 8 358
1934221N14124 1934 39 WP MM NOT_NAMED 1934-08-09 12:00:00 NR 16.1625 123.976 main 178 155 __________P___ -1 16.1625 123.976 2 7 355
1934221N14124 1934 39 WP MM NOT_NAMED 1934-08-09 15:00:00 NR 16.4999 123.937 main 155 149 __________P___ -1 16.4999 123.937 2 7 352
1934221N14124 1934 39 WP MM NOT_NAMED 1934-08-09 18:00:00 NR 16.8375 123.879 main 149 138 __________P___ -1 16.8375 123.879 2 7 349
1934221N14124 1934 39 WP MM NOT_NAMED 1934-08-09 21:00:00 NR 17.2000 123.800 main 139 139 __________O___ -1 17.2000 123.800 2 7 353
1934221N14124 1934 39 WP MM NOT_NAMED 1934-08-10 00:00:00 NR 17.5188 123.802 main 148 148 __________P___ -1 17.5188 123.802 2 7 357
1934221N14124 1934 39 WP MM NOT_NAMED 1934-08-10 03:00:00 NR 17.8808 123.767 main 162 137 __________P___ -1 17.8808 123.767 2 9 349
1934221N14124 1934 39 WP MM NOT_NAMED 1934-08-10 06:00:00 NR 18.3524 123.624 main 137 120 __________P___ -1 18.3524 123.624 2 12 338
1934221N14124 1934 39 WP MM NOT_NAMED 1934-08-10 09:00:00 NR 19.0000 123.300 main 124 122 __________O___ -1 19.0000 123.300 2 19 330
1934221N14124 1934 39 WP MM NOT_NAMED 1934-08-10 12:00:00 NR 19.9840 122.639 main 181 129 __________P___ -1 19.9840 122.639 2 26 326
1934221N14124 1934 39 WP MM NOT_NAMED 1934-08-10 15:00:00 NR 21.1256 121.798 main 129 10 __________P___ -1 21.1256 121.798 2 28 325
1934221N14124 1934 39 WP MM NOT_NAMED 1934-08-10 18:00:00 NR 22.2787 120.905 main 0 0 __________P___ -1 22.2787 120.905 2 27 324
1934221N14124 1934 39 WP MM NOT_NAMED 1934-08-10 21:00:00 NR 23.3000 120.100 main 10 10 __________O___ -1 23.3000 120.100 4 22 324
1934221N14124 1934 39 WP MM NOT_NAMED 1934-08-11 00:00:00 NR 24.0845 119.493 main 81 39 __________P___ -1 24.0845 119.493 4 17 325
1934221N14124 1934 39 WP MM NOT_NAMED 1934-08-11 03:00:00 NR 24.6674 119.063 main 30 0 __________P___ -1 24.6674 119.063 4 12 327
1934221N14124 1934 39 WP MM NOT_NAMED 1934-08-11 06:00:00 NR 25.1169 118.752 main 0 0 __________P___ -1 25.1169 118.752 4 10 329
1934221N14124 1934 39 WP MM NOT_NAMED 1934-08-11 09:00:00 NR 25.5000 118.500 main 0 __________O___ -1 25.5000 118.500 4 9 329

デジタル台風データ・検索

IBTrACS Databaseについて

本データベースは、米国NOAAが公開する1842年以降の世界の熱帯低気圧のベストトラックデータアーカイブInternational Best Track Archive for Climate Stewardship (IBTrACS)を、ウェブで閲覧しやすい形式に変換したものです。

最終更新日:2021-12-03